Time;durP1;ratioP1;P1;durP2;ratioP2;P2;SDS_P1;SDS_P2;PMS_P1;PMS_P2;Temp;Humidity;BMP_temperature;BMP_pressure;BME280_temperature;BME280_humidity;BME280_pressure;Samples;Min_cycle;Max_cycle;Signal;HPM_P1;HPM_P2
2022/04/22 00:00:53;;;;;;;;;;;;;;;13.41;100.00;98305.38;5063627;28;19920;-45
2022/04/22 00:03:18;;;;;;;;;;;;;;;13.70;100.00;98307.19;5063612;28;19924;-46
2022/04/22 00:05:43;;;;;;;;;;;;;;;13.42;100.00;98296.72;5065239;28;19924;-46
2022/04/22 00:08:09;;;;;;;;;;;;;;;12.86;100.00;98299.63;5065623;28;19977;-45
2022/04/22 00:10:34;;;;;;;;;;;;;;;13.39;100.00;98293.38;5066468;28;20002;-49
2022/04/22 00:12:59;;;;;;;;;;;;;;;12.82;100.00;98292.97;5065650;28;20034;-48
2022/04/22 00:15:25;;;;;;;;;;;;;;;14.27;100.00;98288.41;5065003;28;19920;-47
2022/04/22 00:17:50;;;;;;;;;;;;;;;14.63;100.00;98282.84;5068037;28;20293;-47
2022/04/22 00:20:15;;;;;;;;;;;;;;;13.10;100.00;98276.00;5068014;28;20886;-46
2022/04/22 00:22:41;;;;;;;;;;;;;;;13.03;100.00;98272.06;5062602;28;19964;-47
2022/04/22 00:25:07;;;;;;;;;;;;;;;13.26;100.00;98274.25;5066711;28;19940;-45
2022/04/22 00:27:32;;;;;;;;;;;;;;;12.80;100.00;98276.72;5066447;28;20720;-45
2022/04/22 00:29:57;;;;;;;;;;;;;;;13.43;100.00;98277.69;5069780;28;19931;-46
2022/04/22 00:32:23;;;;;;;;;;;;;;;13.42;100.00;98276.84;5065962;28;19912;-47
2022/04/22 00:34:48;;;;;;;;;;;;;;;12.93;100.00;98276.88;5063866;28;19920;-46
2022/04/22 00:37:13;;;;;;;;;;;;;;;13.62;100.00;98280.91;5066058;28;19950;-45
2022/04/22 00:39:39;;;;;;;;;;;;;;;13.92;100.00;98280.09;5066944;28;19965;-46
2022/04/22 00:42:10;;;;;;;;;;;;;;;13.59;100.00;98275.91;5065644;28;19990;-48
2022/04/22 00:44:36;;;;;;;;;;;;;;;13.41;100.00;98272.59;5067437;28;19924;-45
2022/04/22 00:47:01;;;;;;;;;;;;;;;13.03;100.00;98285.00;5068618;28;19973;-46
2022/04/22 00:49:26;;;;;;;;;;;;;;;13.42;100.00;98276.03;5062157;28;19994;-50
2022/04/22 00:51:51;;;;;;;;;;;;;;;12.99;100.00;98273.97;5063759;28;20695;-47
2022/04/22 00:54:16;;;;;;;;;;;;;;;13.38;100.00;98271.00;5064390;28;19977;-48
2022/04/22 00:56:42;;;;;;;;;;;;;;;13.47;100.00;98271.41;5064314;28;19927;-46
2022/04/22 00:59:08;;;;;;;;;;;;;;;13.51;100.00;98276.34;5065291;28;19927;-45
2022/04/22 01:01:34;;;;;;;;;;;;;;;13.25;100.00;98270.00;5064926;28;20294;-45
2022/04/22 01:12:11;;;;;;;;;;;;;;;12.35;100.00;98245.44;5064899;28;20487;-47
2022/04/22 01:14:37;;;;;;;;;;;;;;;13.14;100.00;98242.13;5064775;28;19916;-46
2022/04/22 01:17:02;;;;;;;;;;;;;;;12.60;100.00;98246.75;5065458;28;20498;-46
2022/04/22 01:19:28;;;;;;;;;;;;;;;12.77;100.00;98243.25;5065700;28;19920;-48
2022/04/22 01:21:53;;;;;;;;;;;;;;;13.12;100.00;98235.38;5065801;28;20015;-49
2022/04/22 01:24:18;;;;;;;;;;;;;;;13.13;100.00;98239.63;5062100;28;20470;-48
2022/04/22 01:26:44;;;;;;;;;;;;;;;13.06;100.00;98238.28;5063066;28;19924;-45
2022/04/22 01:29:09;;;;;;;;;;;;;;;12.16;100.00;98231.81;5063313;28;19924;-48
2022/04/22 01:31:35;;;;;;;;;;;;;;;12.34;100.00;98230.03;5062747;28;19913;-47
2022/04/22 01:34:00;;;;;;;;;;;;;;;12.53;100.00;98230.72;5066222;28;20778;-46
2022/04/22 01:36:25;;;;;;;;;;;;;;;12.25;100.00;98230.50;5065635;28;20649;-48
2022/04/22 01:38:50;;;;;;;;;;;;;;;12.88;100.00;98230.59;5067060;28;20045;-49
2022/04/22 01:41:15;;;;;;;;;;;;;;;13.10;100.00;98229.47;5063619;28;19962;-45
2022/04/22 01:43:41;;;;;;;;;;;;;;;12.84;100.00;98217.94;5062603;28;19924;-45
2022/04/22 01:46:06;;;;;;;;;;;;;;;12.51;100.00;98214.47;5062791;28;19917;-48
2022/04/22 01:48:31;;;;;;;;;;;;;;;13.28;100.00;98207.78;5063168;28;20552;-44
2022/04/22 01:50:58;;;;;;;;;;;;;;;12.54;100.00;98213.47;5063206;28;20719;-47
2022/04/22 01:53:23;;;;;;;;;;;;;;;13.06;100.00;98217.63;5060371;28;20009;-47
2022/04/22 01:55:48;;;;;;;;;;;;;;;12.35;100.00;98222.19;5027890;28;829926;-45
2022/04/22 01:58:14;;;;;;;;;;;;;;;12.60;100.00;98210.59;5051733;28;19932;-49
2022/04/22 02:00:39;;;;;;;;;;;;;;;12.22;100.00;98215.97;5064399;28;20845;-45
2022/04/22 02:03:04;;;;;;;;;;;;;;;12.78;100.00;98211.34;5065903;28;20046;-46
2022/04/22 02:05:30;;;;;;;;;;;;;;;13.02;100.00;98214.34;5062616;28;20815;-44
2022/04/22 02:07:55;;;;;;;;;;;;;;;13.18;100.00;98215.19;5061368;28;19924;-46
2022/04/22 02:10:20;;;;;;;;;;;;;;;13.34;100.00;98212.63;5064092;28;19921;-46
2022/04/22 02:12:45;;;;;;;;;;;;;;;12.67;100.00;98211.09;5062954;28;20007;-47
2022/04/22 02:15:14;;;;;;;;;;;;;;;12.96;100.00;98214.72;5063780;28;19920;-46
2022/04/22 02:17:40;;;;;;;;;;;;;;;13.05;100.00;98206.44;5062825;28;19921;-46
2022/04/22 02:20:05;;;;;;;;;;;;;;;12.86;100.00;98211.75;5066041;28;19920;-47
2022/04/22 02:22:30;;;;;;;;;;;;;;;12.90;100.00;98202.94;5062430;28;19924;-46
2022/04/22 02:24:57;;;;;;;;;;;;;;;13.01;100.00;98207.53;5063691;28;19920;-46
2022/04/22 02:30:06;;;;;;;;;;;;;;;12.90;100.00;98205.53;5060749;28;20444;-46
2022/04/22 02:32:32;;;;;;;;;;;;;;;12.98;100.00;98205.94;5062132;28;19923;-45
2022/04/22 02:34:57;;;;;;;;;;;;;;;13.30;100.00;98195.63;5061460;28;20549;-46
2022/04/22 02:37:22;;;;;;;;;;;;;;;13.26;100.00;98193.25;5064041;28;19920;-44
2022/04/22 02:39:47;;;;;;;;;;;;;;;12.90;100.00;98197.75;5066243;28;19952;-50
2022/04/22 02:45:28;;;;;;;;;;;;;;;12.80;100.00;98185.44;5001907;28;19921;-44
2022/04/22 02:47:56;;;;;;;;;;;;;;;13.18;100.00;98180.72;5054526;28;20011;-46
2022/04/22 02:50:22;;;;;;;;;;;;;;;12.96;100.00;98179.34;5062839;28;19932;-48
2022/04/22 02:52:47;;;;;;;;;;;;;;;12.90;100.00;98186.59;5061096;28;19920;-47
2022/04/22 02:55:12;;;;;;;;;;;;;;;12.64;100.00;98186.25;5063436;28;19920;-46
2022/04/22 02:57:38;;;;;;;;;;;;;;;12.66;100.00;98191.34;5060953;28;20447;-49
2022/04/22 03:00:04;;;;;;;;;;;;;;;13.04;100.00;98191.00;5062170;28;20372;-46
2022/04/22 03:02:29;;;;;;;;;;;;;;;12.61;100.00;98195.91;5043712;28;19927;-47
2022/04/22 03:04:54;;;;;;;;;;;;;;;12.90;100.00;98192.59;5060401;28;19943;-46
2022/04/22 03:07:19;;;;;;;;;;;;;;;13.03;100.00;98182.44;5044494;28;19980;-46
2022/04/22 03:09:45;;;;;;;;;;;;;;;13.04;100.00;98188.44;5062036;28;19925;-46
2022/04/22 03:12:13;;;;;;;;;;;;;;;13.38;100.00;98185.66;5060533;28;20305;-46
2022/04/22 03:14:38;;;;;;;;;;;;;;;13.19;100.00;98180.66;5061361;28;19924;-45
2022/04/22 03:17:04;;;;;;;;;;;;;;;12.86;100.00;98180.75;5059509;28;19930;-46
2022/04/22 03:19:29;;;;;;;;;;;;;;;12.62;100.00;98182.94;5062945;28;20484;-46
2022/04/22 03:21:54;;;;;;;;;;;;;;;12.02;100.00;98183.47;5061364;28;19942;-45
2022/04/22 03:24:19;;;;;;;;;;;;;;;12.40;100.00;98177.22;5062866;28;19943;-48
2022/04/22 03:26:45;;;;;;;;;;;;;;;12.44;100.00;98179.56;5063107;28;19977;-46
2022/04/22 03:29:10;;;;;;;;;;;;;;;13.08;100.00;98174.41;5060216;28;19930;-45
2022/04/22 03:31:35;;;;;;;;;;;;;;;13.04;100.00;98172.91;5058547;28;19927;-47
2022/04/22 03:34:00;;;;;;;;;;;;;;;12.40;100.00;98172.88;5061674;28;19920;-46
2022/04/22 03:36:26;;;;;;;;;;;;;;;12.65;100.00;98169.84;5062186;28;20408;-46
2022/04/22 03:38:51;;;;;;;;;;;;;;;12.91;100.00;98168.44;5061931;28;19920;-47
2022/04/22 03:41:16;;;;;;;;;;;;;;;12.65;100.00;98169.00;5057434;28;20265;-45
2022/04/22 03:43:41;;;;;;;;;;;;;;;12.52;100.00;98167.09;5059926;28;19959;-45
2022/04/22 03:46:07;;;;;;;;;;;;;;;12.76;100.00;98174.44;5062729;28;19931;-46
2022/04/22 03:48:32;;;;;;;;;;;;;;;12.93;100.00;98165.75;5057901;28;19920;-46
2022/04/22 03:50:57;;;;;;;;;;;;;;;12.70;100.00;98165.28;5058169;28;19974;-46
2022/04/22 03:53:22;;;;;;;;;;;;;;;13.18;100.00;98168.66;5062314;28;19920;-45
2022/04/22 03:55:48;;;;;;;;;;;;;;;13.15;100.00;98160.22;5062591;28;20011;-45
2022/04/22 03:58:13;;;;;;;;;;;;;;;12.73;100.00;98170.28;5060316;28;20015;-47
2022/04/22 04:00:49;;;;;;;;;;;;;;;12.72;100.00;98167.75;5058558;28;19920;-46
2022/04/22 04:03:14;;;;;;;;;;;;;;;12.78;100.00;98162.25;5061337;28;20153;-46
2022/04/22 04:05:40;;;;;;;;;;;;;;;13.24;100.00;98157.13;5064166;28;19917;-46
2022/04/22 04:08:06;;;;;;;;;;;;;;;13.70;100.00;98157.09;5060424;28;19993;-47
2022/04/22 04:16:00;;;;;;;;;;;;;;;13.23;100.00;98152.03;5057993;28;19973;-48
2022/04/22 04:18:30;;;;;;;;;;;;;;;12.24;100.00;98147.03;5061675;28;19916;-44
2022/04/22 04:23:39;;;;;;;;;;;;;;;12.38;100.00;98159.22;5060307;28;20008;-46
2022/04/22 04:26:06;;;;;;;;;;;;;;;12.12;100.00;98148.53;5061007;28;19920;-45
2022/04/22 04:28:33;;;;;;;;;;;;;;;12.49;100.00;98146.56;5058137;28;19959;-47
2022/04/22 04:30:58;;;;;;;;;;;;;;;12.75;100.00;98146.94;5060268;28;19926;-46
2022/04/22 04:33:23;;;;;;;;;;;;;;;12.47;100.00;98145.81;5057564;28;20408;-46
2022/04/22 04:35:50;;;;;;;;;;;;;;;12.48;100.00;98144.09;5061312;28;20415;-47
2022/04/22 04:38:15;;;;;;;;;;;;;;;13.15;100.00;98140.38;5057872;28;19920;-46
2022/04/22 04:40:40;;;;;;;;;;;;;;;13.65;100.00;98137.63;5063052;28;19931;-47
2022/04/22 04:43:06;;;;;;;;;;;;;;;12.49;100.00;98145.75;5060456;28;19955;-47
2022/04/22 04:45:32;;;;;;;;;;;;;;;13.01;100.00;98147.25;5062209;28;19920;-45
2022/04/22 04:47:57;;;;;;;;;;;;;;;12.85;100.00;98135.16;5062555;28;19920;-49
2022/04/22 04:50:22;;;;;;;;;;;;;;;13.16;100.00;98138.66;5064663;28;19920;-37
2022/04/22 04:52:47;;;;;;;;;;;;;;;13.19;100.00;98141.06;5065216;28;19924;-37
2022/04/22 04:55:15;;;;;;;;;;;;;;;13.33;100.00;98128.19;5063216;28;19952;-37
2022/04/22 04:57:42;;;;;;;;;;;;;;;12.34;100.00;98132.75;5065800;28;19920;-37
2022/04/22 05:00:11;;;;;;;;;;;;;;;12.49;100.00;98135.41;5066361;28;19923;-37
2022/04/22 05:02:36;;;;;;;;;;;;;;;12.03;100.00;98137.84;5063813;28;19964;-37
2022/04/22 05:05:02;;;;;;;;;;;;;;;12.37;100.00;98136.09;5066933;28;20031;-37
2022/04/22 05:07:27;;;;;;;;;;;;;;;12.07;100.00;98135.03;5065225;28;20296;-37
2022/04/22 05:09:52;;;;;;;;;;;;;;;12.48;100.00;98144.94;5066078;28;19925;-37
2022/04/22 05:12:18;;;;;;;;;;;;;;;12.65;100.00;98140.59;5065154;28;20412;-37
2022/04/22 05:14:46;;;;;;;;;;;;;;;12.20;100.00;98137.81;5064755;28;20037;-37
2022/04/22 05:17:11;;;;;;;;;;;;;;;12.18;100.00;98131.03;5064758;28;20027;-37
2022/04/22 05:19:36;;;;;;;;;;;;;;;12.08;100.00;98131.53;5065865;28;19917;-37
2022/04/22 05:22:01;;;;;;;;;;;;;;;12.84;100.00;98130.06;5066213;28;19920;-37
2022/04/22 05:24:27;;;;;;;;;;;;;;;12.28;100.00;98147.72;5066733;28;19924;-37
2022/04/22 05:26:52;;;;;;;;;;;;;;;11.79;100.00;98130.44;5069012;28;19916;-37
2022/04/22 05:34:45;;;;;;;;;;;;;;;12.68;100.00;98124.91;5065773;28;19985;-37
2022/04/22 05:37:10;;;;;;;;;;;;;;;12.16;100.00;98135.44;5065155;28;19920;-37
2022/04/22 05:39:35;;;;;;;;;;;;;;;12.23;100.00;98136.81;5067412;28;20003;-37
2022/04/22 05:42:01;;;;;;;;;;;;;;;12.72;100.00;98131.59;5067109;28;19920;-37
2022/04/22 05:44:27;;;;;;;;;;;;;;;12.09;100.00;98133.22;5063290;28;20595;-37
2022/04/22 05:46:52;;;;;;;;;;;;;;;12.42;100.00;98140.06;5065520;28;19959;-37
2022/04/22 05:49:18;;;;;;;;;;;;;;;12.75;100.00;98126.28;5067739;28;20637;-37
2022/04/22 05:51:43;;;;;;;;;;;;;;;13.09;100.00;98129.53;5065316;28;19916;-37
2022/04/22 05:54:08;;;;;;;;;;;;;;;12.84;100.00;98124.91;5066017;28;20003;-37
2022/04/22 05:56:34;;;;;;;;;;;;;;;13.24;100.00;98131.28;5063139;28;19964;-37
2022/04/22 05:58:59;;;;;;;;;;;;;;;12.84;100.00;98120.59;5062807;28;19924;-37
2022/04/22 06:01:24;;;;;;;;;;;;;;;13.20;100.00;98127.19;5063878;28;20392;-37
2022/04/22 06:03:49;;;;;;;;;;;;;;;13.04;100.00;98131.56;5065455;28;20575;-37
2022/04/22 06:06:15;;;;;;;;;;;;;;;13.11;100.00;98128.56;5064264;28;19958;-38
2022/04/22 06:11:24;;;;;;;;;;;;;;;12.71;100.00;98128.19;5064777;28;20183;-37
2022/04/22 06:13:49;;;;;;;;;;;;;;;13.09;100.00;98124.38;5063702;28;19924;-37
2022/04/22 06:16:14;;;;;;;;;;;;;;;13.35;100.00;98131.53;5062030;28;20385;-37
2022/04/22 06:18:39;;;;;;;;;;;;;;;13.01;100.00;98134.34;5062837;28;20343;-37
2022/04/22 06:21:05;;;;;;;;;;;;;;;13.83;100.00;98136.53;5061483;28;20684;-37
2022/04/22 06:23:30;;;;;;;;;;;;;;;12.43;100.00;98131.44;5062931;28;19975;-37
2022/04/22 06:25:55;;;;;;;;;;;;;;;13.04;100.00;98126.41;5060256;28;19956;-37
2022/04/22 06:28:20;;;;;;;;;;;;;;;12.85;100.00;98132.59;5064459;28;19923;-37
2022/04/22 06:30:47;;;;;;;;;;;;;;;12.72;100.00;98126.41;5061916;28;19971;-37
2022/04/22 06:33:13;;;;;;;;;;;;;;;13.08;100.00;98120.13;5067526;28;19924;-37
2022/04/22 06:35:38;;;;;;;;;;;;;;;13.47;100.00;98118.81;5063365;28;19916;-37
2022/04/22 06:38:03;;;;;;;;;;;;;;;13.17;100.00;98123.03;5063932;28;20583;-37
2022/04/22 06:45:56;;;;;;;;;;;;;;;13.50;100.00;98119.47;5062756;28;20342;-37
2022/04/22 06:48:29;;;;;;;;;;;;;;;13.39;100.00;98112.34;5061844;28;19920;-37
2022/04/22 06:50:56;;;;;;;;;;;;;;;12.65;100.00;98104.44;5060436;28;20191;-37
2022/04/22 06:53:21;;;;;;;;;;;;;;;13.49;100.00;98114.38;5061913;28;20448;-37
2022/04/22 06:55:47;;;;;;;;;;;;;;;14.28;100.00;98115.72;5062858;28;19920;-38
2022/04/22 06:58:14;;;;;;;;;;;;;;;13.43;100.00;98117.31;5062778;28;20007;-37
2022/04/22 07:00:40;;;;;;;;;;;;;;;13.65;100.00;98106.56;5062567;28;19972;-37
2022/04/22 07:03:06;;;;;;;;;;;;;;;14.26;100.00;98113.25;5063955;28;19924;-37
2022/04/22 07:05:34;;;;;;;;;;;;;;;13.68;100.00;98112.38;5063733;28;20490;-37
2022/04/22 07:08:01;;;;;;;;;;;;;;;13.61;100.00;98118.84;5061521;28;19920;-38
2022/04/22 07:10:26;;;;;;;;;;;;;;;13.90;100.00;98116.28;5045777;28;20385;-37
2022/04/22 07:12:53;;;;;;;;;;;;;;;14.00;100.00;98109.63;5064396;28;19923;-37
2022/04/22 07:15:18;;;;;;;;;;;;;;;14.26;100.00;98117.59;5062810;28;19957;-37
2022/04/22 07:17:43;;;;;;;;;;;;;;;14.33;100.00;98124.06;5048737;28;19916;-37
2022/04/22 07:20:09;;;;;;;;;;;;;;;14.41;100.00;98108.84;5063623;28;19927;-37
2022/04/22 07:22:38;;;;;;;;;;;;;;;14.31;100.00;98115.53;5059259;28;20721;-37
2022/04/22 07:25:04;;;;;;;;;;;;;;;14.51;100.00;98107.38;5060286;28;19978;-37
2022/04/22 07:27:30;;;;;;;;;;;;;;;14.59;100.00;98101.72;5062802;28;19928;-37
2022/04/22 07:29:57;;;;;;;;;;;;;;;14.26;100.00;98110.66;5060588;28;19920;-37
2022/04/22 07:32:22;;;;;;;;;;;;;;;14.36;100.00;98103.97;5061344;28;20301;-37
2022/04/22 07:34:47;;;;;;;;;;;;;;;13.70;100.00;98100.19;5062885;28;19920;-37
2022/04/22 07:37:13;;;;;;;;;;;;;;;14.22;100.00;98096.22;5061773;28;20023;-37
2022/04/22 07:39:41;;;;;;;;;;;;;;;13.94;100.00;98089.31;5059405;28;19956;-37
2022/04/22 07:42:07;;;;;;;;;;;;;;;14.17;100.00;98083.56;5058563;28;19920;-37
2022/04/22 07:47:16;;;;;;;;;;;;;;;15.20;100.00;98081.41;5060508;28;19951;-37
2022/04/22 07:49:42;;;;;;;;;;;;;;;15.26;100.00;98078.44;5063224;28;20405;-37
2022/04/22 07:52:07;;;;;;;;;;;;;;;15.58;100.00;98073.69;5059343;28;19951;-37
2022/04/22 07:54:32;;;;;;;;;;;;;;;15.13;100.00;98083.59;5063338;28;20063;-37
2022/04/22 07:56:57;;;;;;;;;;;;;;;14.62;100.00;98078.25;5059565;28;20133;-37
2022/04/22 07:59:25;;;;;;;;;;;;;;;15.57;100.00;98071.19;5059372;28;19924;-37
2022/04/22 08:01:50;;;;;;;;;;;;;;;14.12;100.00;98089.97;5062102;28;20883;-38
2022/04/22 08:04:16;;;;;;;;;;;;;;;15.50;100.00;98080.31;5058573;28;19920;-38
2022/04/22 08:06:41;;;;;;;;;;;;;;;15.33;100.00;98079.69;5060346;28;19959;-38
2022/04/22 08:09:06;;;;;;;;;;;;;;;15.51;100.00;98081.97;5061913;28;20408;-37
2022/04/22 08:11:31;;;;;;;;;;;;;;;16.91;100.00;98070.53;5061034;28;20661;-38
2022/04/22 08:13:58;;;;;;;;;;;;;;;16.45;100.00;98068.63;5061340;28;19971;-37
2022/04/22 08:16:23;;;;;;;;;;;;;;;15.71;100.00;98063.31;5060491;28;21026;-37
2022/04/22 08:18:48;;;;;;;;;;;;;;;15.86;100.00;98077.88;5041126;28;20035;-38
2022/04/22 08:21:13;;;;;;;;;;;;;;;14.58;100.00;98084.53;5059881;28;20027;-37
2022/04/22 08:23:39;;;;;;;;;;;;;;;16.39;100.00;98079.44;5060950;28;19959;-37
2022/04/22 08:26:05;;;;;;;;;;;;;;;15.77;100.00;98081.09;5063749;28;20001;-37
2022/04/22 08:28:30;;;;;;;;;;;;;;;16.66;100.00;98077.47;5064402;28;19916;-37
2022/04/22 08:30:55;;;;;;;;;;;;;;;15.77;100.00;98072.47;5065938;28;20270;-37
2022/04/22 08:33:21;;;;;;;;;;;;;;;14.87;100.00;98071.47;5064843;28;19981;-37
2022/04/22 08:35:46;;;;;;;;;;;;;;;16.00;100.00;98068.28;5064989;28;20070;-37
2022/04/22 08:38:11;;;;;;;;;;;;;;;17.02;100.00;98054.97;5064039;28;20966;-37
2022/04/22 08:40:39;;;;;;;;;;;;;;;17.46;100.00;98060.41;5063767;28;20446;-38
2022/04/22 08:43:08;;;;;;;;;;;;;;;16.94;100.00;98049.50;5061353;28;19931;-37
2022/04/22 08:45:33;;;;;;;;;;;;;;;16.34;100.00;98065.94;5065378;28;19926;-38
2022/04/22 08:50:43;;;;;;;;;;;;;;;17.11;100.00;98066.47;5065219;28;20363;-38
2022/04/22 08:53:09;;;;;;;;;;;;;;;15.76;100.00;98076.00;5062379;28;20551;-37
2022/04/22 08:55:34;;;;;;;;;;;;;;;17.54;100.00;98074.53;5061930;28;20023;-38
2022/04/22 08:58:00;;;;;;;;;;;;;;;16.20;100.00;98066.91;5066391;28;19950;-38
2022/04/22 09:00:29;;;;;;;;;;;;;;;16.10;100.00;98061.50;5065393;28;20253;-37
2022/04/22 09:02:54;;;;;;;;;;;;;;;17.17;100.00;98065.19;5065754;28;20262;-37
2022/04/22 09:05:19;;;;;;;;;;;;;;;17.14;100.00;98055.84;5065142;28;20625;-37
2022/04/22 09:07:45;;;;;;;;;;;;;;;15.50;100.00;98068.16;5065221;28;19920;-37
2022/04/22 09:10:11;;;;;;;;;;;;;;;16.90;100.00;98063.66;5066052;28;19969;-37
2022/04/22 09:12:36;;;;;;;;;;;;;;;16.09;100.00;98057.28;5062540;28;19925;-37
2022/04/22 09:15:01;;;;;;;;;;;;;;;16.45;100.00;98058.22;5066811;28;20297;-37
2022/04/22 09:17:28;;;;;;;;;;;;;;;15.95;100.00;98070.38;5062985;28;19916;-37
2022/04/22 09:19:54;;;;;;;;;;;;;;;15.66;100.00;98070.56;5063244;28;19928;-37
2022/04/22 09:22:23;;;;;;;;;;;;;;;15.88;100.00;98059.59;5062815;28;19925;-37
2022/04/22 09:24:56;;;;;;;;;;;;;;;16.98;100.00;98045.75;5065500;28;19916;-37
2022/04/22 09:27:34;;;;;;;;;;;;;;;16.38;100.00;98059.59;5062894;28;20048;-37
2022/04/22 09:30:00;;;;;;;;;;;;;;;16.40;100.00;98052.50;5064552;28;20450;-37
2022/04/22 09:32:35;;;;;;;;;;;;;;;15.55;100.00;98052.28;5059546;28;20085;-37
2022/04/22 09:35:16;;;;;;;;;;;;;;;15.12;100.00;98056.00;5063247;28;19920;-37
2022/04/22 09:43:23;;;;;;;;;;;;;;;15.75;100.00;98044.00;5064311;28;20855;-37
2022/04/22 09:45:50;;;;;;;;;;;;;;;16.41;100.00;98041.19;5062453;28;19920;-37
2022/04/22 09:48:17;;;;;;;;;;;;;;;16.95;100.00;98035.56;5064192;28;20027;-37
2022/04/22 09:50:43;;;;;;;;;;;;;;;16.28;100.00;98042.06;5060745;28;20044;-37
2022/04/22 09:53:09;;;;;;;;;;;;;;;16.49;100.00;98031.09;5061201;28;19924;-37
2022/04/22 09:55:47;;;;;;;;;;;;;;;16.20;100.00;98039.16;5044802;28;20059;-37
2022/04/22 09:58:13;;;;;;;;;;;;;;;15.88;100.00;98037.03;5062310;28;19916;-37
2022/04/22 10:00:38;;;;;;;;;;;;;;;16.38;100.00;98041.41;5061637;28;19920;-37
2022/04/22 10:03:04;;;;;;;;;;;;;;;15.16;100.00;98046.25;5061429;28;19995;-38
2022/04/22 10:05:31;;;;;;;;;;;;;;;15.21;100.00;98045.03;5061049;28;19927;-37
2022/04/22 10:07:57;;;;;;;;;;;;;;;15.31;100.00;98040.03;5059714;28;19977;-37
2022/04/22 10:10:29;;;;;;;;;;;;;;;15.01;100.00;98042.91;5063535;28;19928;-37
2022/04/22 10:12:54;;;;;;;;;;;;;;;14.83;100.00;98039.75;5065746;28;20354;-36
2022/04/22 10:15:20;;;;;;;;;;;;;;;15.57;100.00;98040.03;5063763;28;20057;-36
2022/04/22 10:17:48;;;;;;;;;;;;;;;14.99;100.00;98045.59;5062538;28;20027;-36
2022/04/22 10:20:14;;;;;;;;;;;;;;;15.58;100.00;98039.94;5062354;28;19920;-36
2022/04/22 10:22:39;;;;;;;;;;;;;;;15.13;100.00;98041.25;5064097;28;19965;-36
2022/04/22 10:25:06;;;;;;;;;;;;;;;15.44;100.00;98040.88;5062728;28;20011;-37
2022/04/22 10:27:32;;;;;;;;;;;;;;;15.10;100.00;98044.03;5065060;28;19916;-37
2022/04/22 10:29:59;;;;;;;;;;;;;;;14.95;100.00;98038.13;5064672;28;19931;-37
2022/04/22 10:32:24;;;;;;;;;;;;;;;15.54;100.00;98035.06;5059994;28;19916;-37
2022/04/22 10:34:50;;;;;;;;;;;;;;;15.11;100.00;98032.75;5062560;28;19974;-37
2022/04/22 10:37:19;;;;;;;;;;;;;;;15.50;100.00;98038.81;5061801;28;20045;-37
2022/04/22 10:39:48;;;;;;;;;;;;;;;15.28;100.00;98035.06;5063452;28;19920;-38
2022/04/22 10:42:14;;;;;;;;;;;;;;;15.52;100.00;98032.56;5063743;28;20301;-37
2022/04/22 10:47:43;;;;;;;;;;;;;;;14.76;100.00;98038.47;5061978;28;20039;-37
2022/04/22 10:50:35;;;;;;;;;;;;;;;15.15;100.00;98029.03;5061371;28;19920;-37
2022/04/22 10:53:04;;;;;;;;;;;;;;;14.23;100.00;98035.72;5056218;28;19924;-37
2022/04/22 10:55:34;;;;;;;;;;;;;;;15.87;100.00;98027.59;5061790;28;19920;-38
2022/04/22 10:58:12;;;;;;;;;;;;;;;15.42;100.00;98034.97;5062916;28;19923;-37
2022/04/22 11:00:37;;;;;;;;;;;;;;;15.40;100.00;98033.41;5061015;28;20296;-48
2022/04/22 11:03:04;;;;;;;;;;;;;;;15.32;100.00;98036.50;5061611;28;19917;-46
2022/04/22 11:05:32;;;;;;;;;;;;;;;16.07;100.00;98033.16;5063149;28;19928;-45
2022/04/22 11:07:58;;;;;;;;;;;;;;;15.75;100.00;98028.44;5061524;28;20011;-49
2022/04/22 11:10:23;;;;;;;;;;;;;;;16.34;100.00;98020.00;5065242;28;19916;-45
2022/04/22 11:12:58;;;;;;;;;;;;;;;15.36;100.00;98031.94;5060203;28;19978;-45
2022/04/22 11:15:42;;;;;;;;;;;;;;;15.95;100.00;98034.84;5078009;28;19955;-48
2022/04/22 11:18:10;;;;;;;;;;;;;;;16.26;100.00;98028.34;5061112;28;20418;-49
2022/04/22 11:20:37;;;;;;;;;;;;;;;15.88;100.00;98023.25;5062622;28;19931;-46
2022/04/22 11:23:03;;;;;;;;;;;;;;;16.40;100.00;98008.31;5063114;28;19916;-47
2022/04/22 11:25:29;;;;;;;;;;;;;;;15.89;100.00;98019.69;5063948;28;19942;-49
2022/04/22 11:27:55;;;;;;;;;;;;;;;14.74;100.00;98019.59;5063903;28;19919;-45
2022/04/22 11:30:20;;;;;;;;;;;;;;;16.20;100.00;98023.56;5045541;28;19974;-45
2022/04/22 11:32:47;;;;;;;;;;;;;;;15.93;100.00;98028.13;5062404;28;19924;-47
2022/04/22 11:35:19;;;;;;;;;;;;;;;16.34;100.00;98024.38;5048653;28;19952;-49
2022/04/22 11:37:44;;;;;;;;;;;;;;;15.30;100.00;98030.59;5063172;28;19916;-49
2022/04/22 11:40:09;;;;;;;;;;;;;;;15.11;100.00;98027.56;5058764;28;19951;-47
2022/04/22 11:42:44;;;;;;;;;;;;;;;14.59;100.00;98029.19;5064174;28;19920;-47
2022/04/22 11:45:11;;;;;;;;;;;;;;;15.30;100.00;98025.41;5063529;28;19990;-47
2022/04/22 11:47:37;;;;;;;;;;;;;;;14.52;100.00;98031.31;5060452;28;19970;-48
2022/04/22 11:50:02;;;;;;;;;;;;;;;15.27;100.00;98023.84;5060526;28;20385;-47
2022/04/22 11:52:29;;;;;;;;;;;;;;;14.40;100.00;98032.09;5059383;28;20347;-47
2022/04/22 11:54:57;;;;;;;;;;;;;;;16.33;100.00;98022.69;5065651;28;19947;-46
2022/04/22 11:57:22;;;;;;;;;;;;;;;14.39;100.00;98025.22;5061923;28;19920;-46
2022/04/22 12:05:32;;;;;;;;;;;;;;;14.92;100.00;98017.59;5064731;28;19924;-46
2022/04/22 12:05:32;;;;;;;;;;;;;;;14.76;100.00;98017.75;5070443;28;20026;-48
2022/04/22 12:08:02;;;;;;;;;;;;;;;15.61;100.00;98018.97;5047066;28;19968;-48
2022/04/22 12:10:30;;;;;;;;;;;;;;;15.51;100.00;98019.69;5067529;28;19990;-47
2022/04/22 12:12:57;;;;;;;;;;;;;;;15.55;100.00;98005.59;5066364;28;20300;-49
2022/04/22 12:15:22;;;;;;;;;;;;;;;17.04;100.00;97998.47;5069991;28;19926;-47
2022/04/22 12:17:47;;;;;;;;;;;;;;;16.27;100.00;97988.44;5065493;28;19912;-45
2022/04/22 12:20:13;;;;;;;;;;;;;;;16.44;100.00;97988.97;5064525;28;19923;-50
2022/04/22 12:22:38;;;;;;;;;;;;;;;15.51;100.00;97992.00;5068951;28;19941;-46
2022/04/22 12:25:19;;;;;;;;;;;;;;;15.67;100.00;97979.63;5066970;28;20037;-47
2022/04/22 12:28:03;;;;;;;;;;;;;;;15.34;100.00;97987.13;5067782;28;19923;-48
2022/04/22 12:30:33;;;;;;;;;;;;;;;15.73;100.00;97980.97;5065513;28;19956;-45
2022/04/22 12:32:58;;;;;;;;;;;;;;;17.71;100.00;97970.84;5064885;28;20774;-47
2022/04/22 12:35:24;;;;;;;;;;;;;;;16.68;100.00;97971.59;5067064;28;19973;-49
2022/04/22 12:37:50;;;;;;;;;;;;;;;16.81;100.00;97975.91;5064556;28;19963;-46
2022/04/22 12:40:15;;;;;;;;;;;;;;;16.82;100.00;97967.19;5068725;28;20381;-46
2022/04/22 12:42:41;;;;;;;;;;;;;;;17.71;100.00;97960.44;5062917;28;19960;-45
2022/04/22 12:54:03;;;;;;;;;;;;;;;15.85;100.00;97955.94;5066107;28;19923;-48
2022/04/22 12:56:29;;;;;;;;;;;;;;;15.94;100.00;97954.47;5064177;28;19920;-46
2022/04/22 12:58:55;;;;;;;;;;;;;;;15.39;100.00;97953.91;5065225;28;19929;-45
2022/04/22 13:01:21;;;;;;;;;;;;;;;16.02;100.00;97946.97;5069130;28;19922;-48
2022/04/22 13:03:47;;;;;;;;;;;;;;;17.05;100.00;97942.88;5064955;28;20340;-45
2022/04/22 13:06:14;;;;;;;;;;;;;;;17.45;100.00;97939.88;5067720;28;19920;-47
2022/04/22 13:08:39;;;;;;;;;;;;;;;17.89;100.00;97935.59;5067371;28;20854;-46
2022/04/22 13:11:08;;;;;;;;;;;;;;;16.46;100.00;97941.16;5070402;28;19920;-46
2022/04/22 13:13:33;;;;;;;;;;;;;;;16.42;100.00;97938.88;5066059;28;20328;-45
2022/04/22 13:15:59;;;;;;;;;;;;;;;16.18;100.00;97946.69;5065204;28;19917;-47
2022/04/22 13:18:24;;;;;;;;;;;;;;;16.89;100.00;97945.00;5064614;28;19977;-46
2022/04/22 13:20:51;;;;;;;;;;;;;;;16.34;100.00;97938.63;5062667;28;20734;-45
2022/04/22 13:23:17;;;;;;;;;;;;;;;16.93;100.00;97933.41;5062624;28;19923;-46
2022/04/22 13:25:43;;;;;;;;;;;;;;;16.96;100.00;97937.56;5065228;28;19920;-48
2022/04/22 13:28:08;;;;;;;;;;;;;;;17.03;100.00;97936.97;5067266;28;20377;-46
2022/04/22 13:30:33;;;;;;;;;;;;;;;18.18;100.00;97916.81;5062664;28;20876;-47
2022/04/22 13:32:59;;;;;;;;;;;;;;;17.90;100.00;97919.03;5062015;28;19924;-45